sensor_id;sensor_type;location;lat;lon;timestamp;P1;durP1;ratioP1;P2;durP2;ratioP2
20474;SDS011;10396;51.724;23.090;2022-07-04T00:02:08;11.10;;;6.00;;
20474;SDS011;10396;51.724;23.090;2022-07-04T00:04:35;11.15;;;7.13;;
20474;SDS011;10396;51.724;23.090;2022-07-04T00:07:03;11.02;;;6.63;;
20474;SDS011;10396;51.724;23.090;2022-07-04T00:09:32;10.55;;;6.15;;
20474;SDS011;10396;51.724;23.090;2022-07-04T00:11:59;11.02;;;6.72;;
20474;SDS011;10396;51.724;23.090;2022-07-04T00:14:27;12.65;;;6.63;;
20474;SDS011;10396;51.724;23.090;2022-07-04T00:16:55;13.43;;;7.32;;
20474;SDS011;10396;51.724;23.090;2022-07-04T00:19:22;12.90;;;7.03;;
20474;SDS011;10396;51.724;23.090;2022-07-04T00:21:49;12.50;;;7.20;;
20474;SDS011;10396;51.724;23.090;2022-07-04T00:24:17;11.35;;;6.90;;
20474;SDS011;10396;51.724;23.090;2022-07-04T00:26:46;12.27;;;7.10;;
20474;SDS011;10396;51.724;23.090;2022-07-04T00:29:13;12.98;;;6.90;;
20474;SDS011;10396;51.724;23.090;2022-07-04T00:31:42;10.90;;;6.63;;
20474;SDS011;10396;51.724;23.090;2022-07-04T00:34:09;12.65;;;7.13;;
20474;SDS011;10396;51.724;23.090;2022-07-04T00:36:37;11.23;;;7.30;;
20474;SDS011;10396;51.724;23.090;2022-07-04T00:39:04;11.95;;;7.38;;
20474;SDS011;10396;51.724;23.090;2022-07-04T00:41:32;12.63;;;7.00;;
20474;SDS011;10396;51.724;23.090;2022-07-04T00:44:01;15.43;;;7.60;;
20474;SDS011;10396;51.724;23.090;2022-07-04T00:46:30;14.68;;;7.72;;
20474;SDS011;10396;51.724;23.090;2022-07-04T00:48:58;12.30;;;6.82;;
20474;SDS011;10396;51.724;23.090;2022-07-04T00:51:26;13.20;;;7.25;;
20474;SDS011;10396;51.724;23.090;2022-07-04T00:53:53;12.98;;;7.25;;
20474;SDS011;10396;51.724;23.090;2022-07-04T00:56:21;13.52;;;8.00;;
20474;SDS011;10396;51.724;23.090;2022-07-04T00:58:49;13.65;;;7.78;;
20474;SDS011;10396;51.724;23.090;2022-07-04T01:01:20;13.45;;;7.00;;
20474;SDS011;10396;51.724;23.090;2022-07-04T01:03:47;14.55;;;7.47;;
20474;SDS011;10396;51.724;23.090;2022-07-04T01:06:16;12.27;;;7.30;;
20474;SDS011;10396;51.724;23.090;2022-07-04T01:08:44;18.20;;;7.28;;
20474;SDS011;10396;51.724;23.090;2022-07-04T01:11:11;17.27;;;7.93;;
20474;SDS011;10396;51.724;23.090;2022-07-04T01:13:39;13.82;;;7.28;;
20474;SDS011;10396;51.724;23.090;2022-07-04T01:16:07;16.08;;;7.95;;
20474;SDS011;10396;51.724;23.090;2022-07-04T01:18:37;13.75;;;7.40;;
20474;SDS011;10396;51.724;23.090;2022-07-04T01:21:06;16.65;;;7.68;;
20474;SDS011;10396;51.724;23.090;2022-07-04T01:23:36;13.27;;;8.00;;
20474;SDS011;10396;51.724;23.090;2022-07-04T01:26:04;12.95;;;8.05;;
20474;SDS011;10396;51.724;23.090;2022-07-04T01:28:31;13.88;;;8.48;;
20474;SDS011;10396;51.724;23.090;2022-07-04T01:30:59;16.58;;;8.48;;
20474;SDS011;10396;51.724;23.090;2022-07-04T01:33:26;15.70;;;8.88;;
20474;SDS011;10396;51.724;23.090;2022-07-04T01:35:54;14.82;;;8.55;;
20474;SDS011;10396;51.724;23.090;2022-07-04T01:38:23;14.73;;;8.38;;
20474;SDS011;10396;51.724;23.090;2022-07-04T01:40:51;14.30;;;8.00;;
20474;SDS011;10396;51.724;23.090;2022-07-04T01:43:18;14.05;;;8.15;;
20474;SDS011;10396;51.724;23.090;2022-07-04T01:45:46;17.00;;;8.30;;
20474;SDS011;10396;51.724;23.090;2022-07-04T01:48:13;13.43;;;8.02;;
20474;SDS011;10396;51.724;23.090;2022-07-04T01:50:41;14.23;;;7.93;;
20474;SDS011;10396;51.724;23.090;2022-07-04T01:53:08;14.52;;;8.00;;
20474;SDS011;10396;51.724;23.090;2022-07-04T01:55:37;13.55;;;8.02;;
20474;SDS011;10396;51.724;23.090;2022-07-04T01:58:05;15.38;;;8.50;;
20474;SDS011;10396;51.724;23.090;2022-07-04T02:00:33;13.25;;;7.70;;
20474;SDS011;10396;51.724;23.090;2022-07-04T02:03:18;12.35;;;7.68;;
20474;SDS011;10396;51.724;23.090;2022-07-04T02:05:45;13.18;;;7.65;;
20474;SDS011;10396;51.724;23.090;2022-07-04T02:08:13;13.10;;;7.90;;
20474;SDS011;10396;51.724;23.090;2022-07-04T02:10:42;13.73;;;7.72;;
20474;SDS011;10396;51.724;23.090;2022-07-04T02:13:10;16.58;;;8.48;;
20474;SDS011;10396;51.724;23.090;2022-07-04T02:15:37;14.77;;;9.35;;
20474;SDS011;10396;51.724;23.090;2022-07-04T02:18:07;15.05;;;9.35;;
20474;SDS011;10396;51.724;23.090;2022-07-04T02:20:37;14.02;;;8.93;;
20474;SDS011;10396;51.724;23.090;2022-07-04T02:23:05;13.70;;;8.05;;
20474;SDS011;10396;51.724;23.090;2022-07-04T02:25:32;12.35;;;8.25;;
20474;SDS011;10396;51.724;23.090;2022-07-04T02:28:01;12.77;;;7.68;;
20474;SDS011;10396;51.724;23.090;2022-07-04T02:30:29;12.68;;;6.70;;
20474;SDS011;10396;51.724;23.090;2022-07-04T02:32:56;11.93;;;7.00;;
20474;SDS011;10396;51.724;23.090;2022-07-04T02:35:24;13.88;;;8.70;;
20474;SDS011;10396;51.724;23.090;2022-07-04T02:37:51;11.95;;;7.95;;
20474;SDS011;10396;51.724;23.090;2022-07-04T02:40:19;19.25;;;8.77;;
20474;SDS011;10396;51.724;23.090;2022-07-04T02:42:46;22.30;;;8.57;;
20474;SDS011;10396;51.724;23.090;2022-07-04T02:45:15;26.23;;;9.32;;
20474;SDS011;10396;51.724;23.090;2022-07-04T02:47:43;28.70;;;9.80;;
20474;SDS011;10396;51.724;23.090;2022-07-04T02:50:10;18.67;;;9.43;;
20474;SDS011;10396;51.724;23.090;2022-07-04T02:52:38;19.17;;;8.85;;
20474;SDS011;10396;51.724;23.090;2022-07-04T02:55:05;18.65;;;8.13;;
20474;SDS011;10396;51.724;23.090;2022-07-04T02:57:33;24.65;;;8.55;;
20474;SDS011;10396;51.724;23.090;2022-07-04T03:00:03;15.95;;;8.07;;
20474;SDS011;10396;51.724;23.090;2022-07-04T03:02:32;17.80;;;8.18;;
20474;SDS011;10396;51.724;23.090;2022-07-04T03:05:00;19.75;;;8.90;;
20474;SDS011;10396;51.724;23.090;2022-07-04T03:07:27;17.83;;;8.98;;
20474;SDS011;10396;51.724;23.090;2022-07-04T03:09:55;17.38;;;9.02;;
20474;SDS011;10396;51.724;23.090;2022-07-04T03:12:22;16.83;;;8.98;;
20474;SDS011;10396;51.724;23.090;2022-07-04T03:14:50;17.80;;;9.38;;
20474;SDS011;10396;51.724;23.090;2022-07-04T03:17:18;17.60;;;8.68;;
20474;SDS011;10396;51.724;23.090;2022-07-04T03:19:48;19.02;;;10.45;;
20474;SDS011;10396;51.724;23.090;2022-07-04T03:22:15;18.67;;;9.38;;
20474;SDS011;10396;51.724;23.090;2022-07-04T03:24:43;17.98;;;9.48;;
20474;SDS011;10396;51.724;23.090;2022-07-04T03:27:10;17.92;;;9.07;;
20474;SDS011;10396;51.724;23.090;2022-07-04T03:29:38;15.00;;;8.55;;
20474;SDS011;10396;51.724;23.090;2022-07-04T03:32:05;18.20;;;9.63;;
20474;SDS011;10396;51.724;23.090;2022-07-04T03:34:34;19.33;;;9.02;;
20474;SDS011;10396;51.724;23.090;2022-07-04T03:37:03;17.27;;;9.38;;
20474;SDS011;10396;51.724;23.090;2022-07-04T03:39:30;17.98;;;9.32;;
20474;SDS011;10396;51.724;23.090;2022-07-04T03:41:58;18.38;;;8.98;;
20474;SDS011;10396;51.724;23.090;2022-07-04T03:44:25;20.85;;;9.50;;
20474;SDS011;10396;51.724;23.090;2022-07-04T03:46:53;20.15;;;11.43;;
20474;SDS011;10396;51.724;23.090;2022-07-04T03:49:20;18.10;;;9.82;;
20474;SDS011;10396;51.724;23.090;2022-07-04T03:51:48;16.35;;;9.40;;
20474;SDS011;10396;51.724;23.090;2022-07-04T03:54:17;16.40;;;9.68;;
20474;SDS011;10396;51.724;23.090;2022-07-04T03:56:44;17.27;;;9.57;;
20474;SDS011;10396;51.724;23.090;2022-07-04T03:59:12;18.45;;;9.80;;
20474;SDS011;10396;51.724;23.090;2022-07-04T04:01:39;16.50;;;9.85;;
20474;SDS011;10396;51.724;23.090;2022-07-04T04:04:07;15.82;;;10.07;;
20474;SDS011;10396;51.724;23.090;2022-07-04T04:07:06;16.77;;;9.80;;
20474;SDS011;10396;51.724;23.090;2022-07-04T04:09:35;17.00;;;9.75;;
20474;SDS011;10396;51.724;23.090;2022-07-04T04:12:03;17.08;;;10.05;;
20474;SDS011;10396;51.724;23.090;2022-07-04T04:14:31;17.15;;;10.35;;
20474;SDS011;10396;51.724;23.090;2022-07-04T04:16:58;17.08;;;10.60;;
20474;SDS011;10396;51.724;23.090;2022-07-04T04:19:26;15.75;;;10.63;;
20474;SDS011;10396;51.724;23.090;2022-07-04T04:21:53;16.52;;;10.77;;
20474;SDS011;10396;51.724;23.090;2022-07-04T04:24:21;17.70;;;10.30;;
20474;SDS011;10396;51.724;23.090;2022-07-04T04:26:50;16.83;;;10.65;;
20474;SDS011;10396;51.724;23.090;2022-07-04T04:29:17;16.30;;;9.70;;
20474;SDS011;10396;51.724;23.090;2022-07-04T04:31:45;18.77;;;10.48;;
20474;SDS011;10396;51.724;23.090;2022-07-04T04:34:12;19.33;;;10.88;;
20474;SDS011;10396;51.724;23.090;2022-07-04T04:36:40;19.45;;;11.30;;
20474;SDS011;10396;51.724;23.090;2022-07-04T04:39:08;15.95;;;10.18;;
20474;SDS011;10396;51.724;23.090;2022-07-04T04:41:35;15.55;;;10.13;;
20474;SDS011;10396;51.724;23.090;2022-07-04T04:44:04;17.10;;;10.77;;
20474;SDS011;10396;51.724;23.090;2022-07-04T04:46:32;16.45;;;10.32;;
20474;SDS011;10396;51.724;23.090;2022-07-04T04:48:59;16.10;;;10.10;;
20474;SDS011;10396;51.724;23.090;2022-07-04T04:51:27;18.02;;;11.25;;
20474;SDS011;10396;51.724;23.090;2022-07-04T04:53:55;16.27;;;11.63;;
20474;SDS011;10396;51.724;23.090;2022-07-04T04:56:22;16.48;;;10.35;;
20474;SDS011;10396;51.724;23.090;2022-07-04T04:58:50;18.35;;;10.88;;
20474;SDS011;10396;51.724;23.090;2022-07-04T05:01:19;17.27;;;10.18;;
20474;SDS011;10396;51.724;23.090;2022-07-04T05:03:46;19.65;;;11.02;;
20474;SDS011;10396;51.724;23.090;2022-07-04T05:06:14;19.60;;;10.63;;
20474;SDS011;10396;51.724;23.090;2022-07-04T05:08:41;15.38;;;10.02;;
20474;SDS011;10396;51.724;23.090;2022-07-04T05:11:09;17.95;;;10.68;;
20474;SDS011;10396;51.724;23.090;2022-07-04T05:13:37;17.10;;;10.23;;
20474;SDS011;10396;51.724;23.090;2022-07-04T05:16:04;17.00;;;10.88;;
20474;SDS011;10396;51.724;23.090;2022-07-04T05:18:33;16.83;;;11.50;;
20474;SDS011;10396;51.724;23.090;2022-07-04T05:21:01;17.52;;;11.73;;
20474;SDS011;10396;51.724;23.090;2022-07-04T05:23:29;18.15;;;10.15;;
20474;SDS011;10396;51.724;23.090;2022-07-04T05:25:56;15.98;;;10.18;;
20474;SDS011;10396;51.724;23.090;2022-07-04T05:28:24;15.27;;;9.88;;
20474;SDS011;10396;51.724;23.090;2022-07-04T05:30:52;15.32;;;10.07;;
20474;SDS011;10396;51.724;23.090;2022-07-04T05:33:19;14.02;;;9.38;;
20474;SDS011;10396;51.724;23.090;2022-07-04T05:35:48;16.35;;;10.18;;
20474;SDS011;10396;51.724;23.090;2022-07-04T05:38:16;14.38;;;9.85;;
20474;SDS011;10396;51.724;23.090;2022-07-04T05:40:43;16.42;;;9.88;;
20474;SDS011;10396;51.724;23.090;2022-07-04T05:43:11;14.88;;;9.32;;
20474;SDS011;10396;51.724;23.090;2022-07-04T05:45:38;13.05;;;9.10;;
20474;SDS011;10396;51.724;23.090;2022-07-04T05:48:06;12.98;;;8.27;;
20474;SDS011;10396;51.724;23.090;2022-07-04T05:50:33;14.20;;;8.43;;
20474;SDS011;10396;51.724;23.090;2022-07-04T05:53:02;14.60;;;8.90;;
20474;SDS011;10396;51.724;23.090;2022-07-04T05:55:30;12.75;;;8.30;;
20474;SDS011;10396;51.724;23.090;2022-07-04T05:57:57;11.90;;;7.93;;
20474;SDS011;10396;51.724;23.090;2022-07-04T06:00:25;11.32;;;7.32;;
20474;SDS011;10396;51.724;23.090;2022-07-04T06:02:52;11.80;;;7.72;;
20474;SDS011;10396;51.724;23.090;2022-07-04T06:05:20;12.40;;;7.65;;
20474;SDS011;10396;51.724;23.090;2022-07-04T06:07:47;11.23;;;7.55;;
20474;SDS011;10396;51.724;23.090;2022-07-04T06:10:16;13.18;;;7.60;;
20474;SDS011;10396;51.724;23.090;2022-07-04T06:12:44;14.20;;;9.07;;
20474;SDS011;10396;51.724;23.090;2022-07-04T06:15:11;12.50;;;8.15;;
20474;SDS011;10396;51.724;23.090;2022-07-04T06:17:39;11.93;;;7.45;;
20474;SDS011;10396;51.724;23.090;2022-07-04T06:20:07;13.05;;;7.55;;
20474;SDS011;10396;51.724;23.090;2022-07-04T06:22:38;13.07;;;8.18;;
20474;SDS011;10396;51.724;23.090;2022-07-04T06:25:09;16.58;;;7.93;;
20474;SDS011;10396;51.724;23.090;2022-07-04T06:27:39;11.60;;;7.25;;
20474;SDS011;10396;51.724;23.090;2022-07-04T06:30:07;11.50;;;7.07;;
20474;SDS011;10396;51.724;23.090;2022-07-04T06:32:42;14.38;;;7.95;;
20474;SDS011;10396;51.724;23.090;2022-07-04T06:35:10;11.40;;;7.78;;
20474;SDS011;10396;51.724;23.090;2022-07-04T06:37:55;11.68;;;7.88;;
20474;SDS011;10396;51.724;23.090;2022-07-04T06:40:22;13.23;;;7.40;;
20474;SDS011;10396;51.724;23.090;2022-07-04T06:42:52;12.73;;;7.35;;
20474;SDS011;10396;51.724;23.090;2022-07-04T06:45:19;11.70;;;7.85;;
20474;SDS011;10396;51.724;23.090;2022-07-04T06:47:47;10.95;;;7.00;;
20474;SDS011;10396;51.724;23.090;2022-07-04T06:50:15;12.43;;;7.32;;
20474;SDS011;10396;51.724;23.090;2022-07-04T06:52:43;13.55;;;6.90;;
20474;SDS011;10396;51.724;23.090;2022-07-04T06:55:11;13.13;;;7.18;;
20474;SDS011;10396;51.724;23.090;2022-07-04T06:57:38;12.10;;;7.18;;
20474;SDS011;10396;51.724;23.090;2022-07-04T07:00:07;13.07;;;7.35;;
20474;SDS011;10396;51.724;23.090;2022-07-04T07:02:36;10.63;;;6.28;;
20474;SDS011;10396;51.724;23.090;2022-07-04T07:05:04;11.02;;;6.60;;
20474;SDS011;10396;51.724;23.090;2022-07-04T07:07:32;10.52;;;6.43;;
20474;SDS011;10396;51.724;23.090;2022-07-04T07:10:00;13.75;;;6.90;;
20474;SDS011;10396;51.724;23.090;2022-07-04T07:12:28;12.23;;;5.95;;
20474;SDS011;10396;51.724;23.090;2022-07-04T07:14:56;9.43;;;5.57;;
20474;SDS011;10396;51.724;23.090;2022-07-04T07:17:25;11.43;;;5.97;;
20474;SDS011;10396;51.724;23.090;2022-07-04T07:19:52;10.27;;;5.57;;
20474;SDS011;10396;51.724;23.090;2022-07-04T07:22:20;13.43;;;6.15;;
20474;SDS011;10396;51.724;23.090;2022-07-04T07:24:48;9.05;;;5.13;;
20474;SDS011;10396;51.724;23.090;2022-07-04T07:27:15;10.30;;;5.38;;
20474;SDS011;10396;51.724;23.090;2022-07-04T07:29:43;9.65;;;5.20;;
20474;SDS011;10396;51.724;23.090;2022-07-04T07:32:10;17.50;;;5.28;;
20474;SDS011;10396;51.724;23.090;2022-07-04T07:34:39;13.02;;;5.72;;
20474;SDS011;10396;51.724;23.090;2022-07-04T07:37:07;9.35;;;5.47;;
20474;SDS011;10396;51.724;23.090;2022-07-04T07:39:34;11.00;;;6.43;;
20474;SDS011;10396;51.724;23.090;2022-07-04T07:42:02;10.30;;;5.95;;
20474;SDS011;10396;51.724;23.090;2022-07-04T07:44:30;9.95;;;6.13;;
20474;SDS011;10396;51.724;23.090;2022-07-04T07:46:58;10.27;;;6.15;;
20474;SDS011;10396;51.724;23.090;2022-07-04T07:49:25;10.55;;;6.18;;
20474;SDS011;10396;51.724;23.090;2022-07-04T07:51:54;11.05;;;6.03;;
20474;SDS011;10396;51.724;23.090;2022-07-04T07:54:22;10.27;;;6.18;;
20474;SDS011;10396;51.724;23.090;2022-07-04T07:56:49;13.48;;;6.28;;
20474;SDS011;10396;51.724;23.090;2022-07-04T07:59:17;10.00;;;5.82;;
20474;SDS011;10396;51.724;23.090;2022-07-04T08:01:45;10.43;;;5.40;;
20474;SDS011;10396;51.724;23.090;2022-07-04T08:04:12;9.45;;;5.15;;
20474;SDS011;10396;51.724;23.090;2022-07-04T08:06:59;11.80;;;7.07;;
20474;SDS011;10396;51.724;23.090;2022-07-04T08:09:26;11.50;;;6.55;;
20474;SDS011;10396;51.724;23.090;2022-07-04T08:11:53;10.70;;;6.45;;
20474;SDS011;10396;51.724;23.090;2022-07-04T08:14:21;10.98;;;6.28;;
20474;SDS011;10396;51.724;23.090;2022-07-04T08:16:48;10.27;;;6.20;;
20474;SDS011;10396;51.724;23.090;2022-07-04T08:19:16;9.65;;;5.32;;
20474;SDS011;10396;51.724;23.090;2022-07-04T08:21:44;8.93;;;4.90;;
20474;SDS011;10396;51.724;23.090;2022-07-04T08:24:13;9.02;;;5.07;;
20474;SDS011;10396;51.724;23.090;2022-07-04T08:26:41;8.68;;;4.88;;
20474;SDS011;10396;51.724;23.090;2022-07-04T08:29:09;10.15;;;5.22;;
20474;SDS011;10396;51.724;23.090;2022-07-04T08:31:36;10.00;;;5.55;;
20474;SDS011;10396;51.724;23.090;2022-07-04T08:34:04;9.15;;;4.90;;
20474;SDS011;10396;51.724;23.090;2022-07-04T08:36:31;8.07;;;4.90;;
20474;SDS011;10396;51.724;23.090;2022-07-04T08:38:59;8.82;;;5.03;;
20474;SDS011;10396;51.724;23.090;2022-07-04T08:41:28;9.05;;;5.05;;
20474;SDS011;10396;51.724;23.090;2022-07-04T08:43:56;9.30;;;4.80;;
20474;SDS011;10396;51.724;23.090;2022-07-04T08:46:23;14.93;;;5.00;;
20474;SDS011;10396;51.724;23.090;2022-07-04T08:48:53;9.43;;;5.07;;
20474;SDS011;10396;51.724;23.090;2022-07-04T08:51:25;9.32;;;5.07;;
20474;SDS011;10396;51.724;23.090;2022-07-04T08:53:57;9.25;;;4.90;;
20474;SDS011;10396;51.724;23.090;2022-07-04T08:56:24;9.90;;;5.05;;
20474;SDS011;10396;51.724;23.090;2022-07-04T08:59:11;12.73;;;5.30;;
20474;SDS011;10396;51.724;23.090;2022-07-04T09:01:40;7.97;;;4.75;;
20474;SDS011;10396;51.724;23.090;2022-07-04T09:04:09;8.93;;;5.00;;
20474;SDS011;10396;51.724;23.090;2022-07-04T09:06:37;9.32;;;5.25;;
20474;SDS011;10396;51.724;23.090;2022-07-04T09:09:05;10.50;;;5.07;;
20474;SDS011;10396;51.724;23.090;2022-07-04T09:11:33;9.43;;;5.13;;
20474;SDS011;10396;51.724;23.090;2022-07-04T09:14:01;9.50;;;5.45;;
20474;SDS011;10396;51.724;23.090;2022-07-04T09:16:30;10.15;;;5.35;;
20474;SDS011;10396;51.724;23.090;2022-07-04T09:18:57;10.68;;;5.30;;
20474;SDS011;10396;51.724;23.090;2022-07-04T09:24:11;11.55;;;5.80;;
20474;SDS011;10396;51.724;23.090;2022-07-04T09:26:39;9.93;;;5.60;;
20474;SDS011;10396;51.724;23.090;2022-07-04T09:29:07;9.88;;;5.40;;
20474;SDS011;10396;51.724;23.090;2022-07-04T09:31:37;10.10;;;5.72;;
20474;SDS011;10396;51.724;23.090;2022-07-04T09:34:05;11.85;;;6.20;;
20474;SDS011;10396;51.724;23.090;2022-07-04T09:36:33;10.57;;;5.43;;
20474;SDS011;10396;51.724;23.090;2022-07-04T09:39:09;9.35;;;5.13;;
20474;SDS011;10396;51.724;23.090;2022-07-04T09:41:53;10.52;;;5.30;;
20474;SDS011;10396;51.724;23.090;2022-07-04T09:44:21;10.98;;;5.30;;
20474;SDS011;10396;51.724;23.090;2022-07-04T09:46:51;9.55;;;5.28;;
20474;SDS011;10396;51.724;23.090;2022-07-04T09:49:18;11.07;;;4.95;;
20474;SDS011;10396;51.724;23.090;2022-07-04T09:51:47;10.95;;;5.05;;
20474;SDS011;10396;51.724;23.090;2022-07-04T09:54:16;8.77;;;5.30;;
20474;SDS011;10396;51.724;23.090;2022-07-04T09:56:46;12.68;;;5.30;;
20474;SDS011;10396;51.724;23.090;2022-07-04T09:59:14;9.25;;;5.63;;
20474;SDS011;10396;51.724;23.090;2022-07-04T10:01:42;10.25;;;5.50;;
20474;SDS011;10396;51.724;23.090;2022-07-04T10:04:11;9.07;;;5.10;;
20474;SDS011;10396;51.724;23.090;2022-07-04T10:06:40;9.48;;;5.55;;
20474;SDS011;10396;51.724;23.090;2022-07-04T10:09:08;10.05;;;5.65;;
20474;SDS011;10396;51.724;23.090;2022-07-04T10:11:37;11.10;;;5.13;;
20474;SDS011;10396;51.724;23.090;2022-07-04T10:14:06;8.68;;;5.18;;
20474;SDS011;10396;51.724;23.090;2022-07-04T10:16:34;10.40;;;5.30;;
20474;SDS011;10396;51.724;23.090;2022-07-04T10:19:01;8.27;;;5.00;;
20474;SDS011;10396;51.724;23.090;2022-07-04T10:21:31;11.02;;;5.30;;
20474;SDS011;10396;51.724;23.090;2022-07-04T10:23:59;9.05;;;5.20;;
20474;SDS011;10396;51.724;23.090;2022-07-04T10:26:28;8.98;;;4.95;;
20474;SDS011;10396;51.724;23.090;2022-07-04T10:29:01;9.18;;;5.22;;
20474;SDS011;10396;51.724;23.090;2022-07-04T10:31:29;9.60;;;5.35;;
20474;SDS011;10396;51.724;23.090;2022-07-04T10:33:57;9.18;;;5.30;;
20474;SDS011;10396;51.724;23.090;2022-07-04T10:36:26;9.80;;;5.40;;
20474;SDS011;10396;51.724;23.090;2022-07-04T10:38:58;9.45;;;5.38;;
20474;SDS011;10396;51.724;23.090;2022-07-04T10:41:28;11.48;;;5.40;;
20474;SDS011;10396;51.724;23.090;2022-07-04T10:43:56;11.30;;;5.20;;
20474;SDS011;10396;51.724;23.090;2022-07-04T10:46:30;8.90;;;5.05;;
20474;SDS011;10396;51.724;23.090;2022-07-04T10:49:00;9.85;;;5.07;;
20474;SDS011;10396;51.724;23.090;2022-07-04T10:51:32;8.70;;;5.10;;
20474;SDS011;10396;51.724;23.090;2022-07-04T10:54:09;8.90;;;5.00;;
20474;SDS011;10396;51.724;23.090;2022-07-04T10:56:42;11.52;;;5.13;;
20474;SDS011;10396;51.724;23.090;2022-07-04T10:59:11;9.07;;;5.38;;
20474;SDS011;10396;51.724;23.090;2022-07-04T11:01:44;9.05;;;4.90;;
20474;SDS011;10396;51.724;23.090;2022-07-04T11:07:01;9.02;;;4.88;;
20474;SDS011;10396;51.724;23.090;2022-07-04T11:09:31;9.48;;;5.28;;
20474;SDS011;10396;51.724;23.090;2022-07-04T11:11:58;8.63;;;4.82;;
20474;SDS011;10396;51.724;23.090;2022-07-04T11:14:30;9.27;;;5.10;;
20474;SDS011;10396;51.724;23.090;2022-07-04T11:17:02;9.65;;;5.15;;
20474;SDS011;10396;51.724;23.090;2022-07-04T11:19:30;10.02;;;5.50;;
20474;SDS011;10396;51.724;23.090;2022-07-04T11:21:57;11.02;;;5.28;;
20474;SDS011;10396;51.724;23.090;2022-07-04T11:24:25;8.88;;;5.28;;
20474;SDS011;10396;51.724;23.090;2022-07-04T11:26:54;10.18;;;5.20;;
20474;SDS011;10396;51.724;23.090;2022-07-04T11:29:22;9.95;;;4.88;;
20474;SDS011;10396;51.724;23.090;2022-07-04T11:31:50;9.15;;;5.03;;
20474;SDS011;10396;51.724;23.090;2022-07-04T11:34:18;10.48;;;5.30;;
20474;SDS011;10396;51.724;23.090;2022-07-04T11:36:47;8.20;;;4.95;;
20474;SDS011;10396;51.724;23.090;2022-07-04T11:39:16;8.55;;;5.20;;
20474;SDS011;10396;51.724;23.090;2022-07-04T11:41:47;11.20;;;5.07;;
20474;SDS011;10396;51.724;23.090;2022-07-04T11:44:35;9.18;;;5.63;;
20474;SDS011;10396;51.724;23.090;2022-07-04T11:47:35;10.05;;;5.53;;
20474;SDS011;10396;51.724;23.090;2022-07-04T11:50:05;11.55;;;5.50;;
20474;SDS011;10396;51.724;23.090;2022-07-04T11:52:41;8.88;;;5.18;;
20474;SDS011;10396;51.724;23.090;2022-07-04T11:55:10;9.85;;;4.88;;
20474;SDS011;10396;51.724;23.090;2022-07-04T11:57:38;10.73;;;5.10;;
20474;SDS011;10396;51.724;23.090;2022-07-04T12:00:10;8.68;;;4.72;;
20474;SDS011;10396;51.724;23.090;2022-07-04T12:02:40;9.48;;;4.97;;
20474;SDS011;10396;51.724;23.090;2022-07-04T12:05:08;10.52;;;4.90;;
20474;SDS011;10396;51.724;23.090;2022-07-04T12:07:36;9.70;;;4.95;;
20474;SDS011;10396;51.724;23.090;2022-07-04T12:10:08;8.05;;;4.60;;
20474;SDS011;10396;51.724;23.090;2022-07-04T12:12:50;9.85;;;5.20;;
20474;SDS011;10396;51.724;23.090;2022-07-04T12:15:20;8.85;;;5.30;;
20474;SDS011;10396;51.724;23.090;2022-07-04T12:17:52;8.98;;;4.95;;
20474;SDS011;10396;51.724;23.090;2022-07-04T12:20:20;11.07;;;5.18;;
20474;SDS011;10396;51.724;23.090;2022-07-04T12:22:49;9.63;;;5.18;;
20474;SDS011;10396;51.724;23.090;2022-07-04T12:25:22;9.52;;;5.20;;
20474;SDS011;10396;51.724;23.090;2022-07-04T12:27:52;9.23;;;5.10;;
20474;SDS011;10396;51.724;23.090;2022-07-04T12:30:25;10.15;;;5.28;;
20474;SDS011;10396;51.724;23.090;2022-07-04T12:32:56;10.30;;;5.35;;
20474;SDS011;10396;51.724;23.090;2022-07-04T12:35:31;9.60;;;5.43;;
20474;SDS011;10396;51.724;23.090;2022-07-04T12:38:00;9.13;;;5.55;;
20474;SDS011;10396;51.724;23.090;2022-07-04T12:40:28;10.35;;;5.32;;
20474;SDS011;10396;51.724;23.090;2022-07-04T12:42:56;8.80;;;5.40;;
20474;SDS011;10396;51.724;23.090;2022-07-04T12:45:25;10.23;;;4.97;;
20474;SDS011;10396;51.724;23.090;2022-07-04T12:47:53;10.35;;;5.28;;
20474;SDS011;10396;51.724;23.090;2022-07-04T12:50:25;9.52;;;5.50;;
20474;SDS011;10396;51.724;23.090;2022-07-04T12:52:53;10.82;;;5.97;;
20474;SDS011;10396;51.724;23.090;2022-07-04T12:55:21;8.82;;;5.18;;
20474;SDS011;10396;51.724;23.090;2022-07-04T12:57:48;9.68;;;5.18;;
20474;SDS011;10396;51.724;23.090;2022-07-04T13:00:16;10.60;;;5.30;;
20474;SDS011;10396;51.724;23.090;2022-07-04T13:02:44;8.55;;;4.95;;
20474;SDS011;10396;51.724;23.090;2022-07-04T13:05:12;8.82;;;5.35;;
20474;SDS011;10396;51.724;23.090;2022-07-04T13:07:44;10.02;;;5.05;;
20474;SDS011;10396;51.724;23.090;2022-07-04T13:10:13;8.50;;;4.95;;
20474;SDS011;10396;51.724;23.090;2022-07-04T13:12:40;8.25;;;5.03;;
20474;SDS011;10396;51.724;23.090;2022-07-04T13:15:07;9.25;;;4.50;;
20474;SDS011;10396;51.724;23.090;2022-07-04T13:17:37;9.10;;;5.07;;
20474;SDS011;10396;51.724;23.090;2022-07-04T13:20:06;7.88;;;4.10;;
20474;SDS011;10396;51.724;23.090;2022-07-04T13:22:35;7.50;;;4.20;;
20474;SDS011;10396;51.724;23.090;2022-07-04T13:25:03;7.40;;;4.07;;
20474;SDS011;10396;51.724;23.090;2022-07-04T13:27:32;7.40;;;4.05;;
20474;SDS011;10396;51.724;23.090;2022-07-04T13:30:00;6.97;;;3.97;;
20474;SDS011;10396;51.724;23.090;2022-07-04T13:32:27;6.25;;;3.80;;
20474;SDS011;10396;51.724;23.090;2022-07-04T13:34:55;7.50;;;3.60;;
20474;SDS011;10396;51.724;23.090;2022-07-04T13:37:24;6.93;;;3.97;;
20474;SDS011;10396;51.724;23.090;2022-07-04T13:39:51;6.10;;;3.80;;
20474;SDS011;10396;51.724;23.090;2022-07-04T13:42:20;8.82;;;3.63;;
20474;SDS011;10396;51.724;23.090;2022-07-04T13:45:02;8.73;;;3.53;;
20474;SDS011;10396;51.724;23.090;2022-07-04T13:47:30;6.65;;;3.58;;
20474;SDS011;10396;51.724;23.090;2022-07-04T13:49:57;9.02;;;3.45;;
20474;SDS011;10396;51.724;23.090;2022-07-04T13:52:26;7.50;;;3.58;;
20474;SDS011;10396;51.724;23.090;2022-07-04T13:54:54;8.48;;;3.65;;
20474;SDS011;10396;51.724;23.090;2022-07-04T13:57:21;5.82;;;3.47;;
20474;SDS011;10396;51.724;23.090;2022-07-04T13:59:49;7.13;;;3.40;;
20474;SDS011;10396;51.724;23.090;2022-07-04T14:02:16;4.75;;;2.80;;
20474;SDS011;10396;51.724;23.090;2022-07-04T14:04:44;6.13;;;3.00;;
20474;SDS011;10396;51.724;23.090;2022-07-04T14:07:12;6.88;;;3.20;;
20474;SDS011;10396;51.724;23.090;2022-07-04T14:09:41;6.53;;;2.80;;
20474;SDS011;10396;51.724;23.090;2022-07-04T14:12:08;7.32;;;3.10;;
20474;SDS011;10396;51.724;23.090;2022-07-04T14:14:36;4.90;;;2.85;;
20474;SDS011;10396;51.724;23.090;2022-07-04T14:17:04;5.53;;;2.80;;
20474;SDS011;10396;51.724;23.090;2022-07-04T14:19:31;5.82;;;3.17;;
20474;SDS011;10396;51.724;23.090;2022-07-04T14:21:59;7.25;;;3.20;;
20474;SDS011;10396;51.724;23.090;2022-07-04T14:24:26;6.50;;;3.20;;
20474;SDS011;10396;51.724;23.090;2022-07-04T14:26:55;8.63;;;3.30;;
20474;SDS011;10396;51.724;23.090;2022-07-04T14:29:23;4.50;;;2.70;;
20474;SDS011;10396;51.724;23.090;2022-07-04T14:31:50;5.65;;;2.83;;
20474;SDS011;10396;51.724;23.090;2022-07-04T14:34:18;6.38;;;3.08;;
20474;SDS011;10396;51.724;23.090;2022-07-04T14:36:46;5.57;;;3.10;;
20474;SDS011;10396;51.724;23.090;2022-07-04T14:39:13;6.07;;;2.90;;